createdAt,value
2022-09-05T00:02:49.022Z,57.58
2022-09-05T00:05:32.641Z,57.40
2022-09-05T00:08:08.456Z,57.04
2022-09-05T00:11:16.832Z,57.41
2022-09-05T00:13:32.704Z,57.36
2022-09-05T00:16:06.491Z,56.99
2022-09-05T00:24:23.269Z,57.04
2022-09-05T00:24:26.770Z,57.20
2022-09-05T00:25:01.039Z,57.54
2022-09-05T00:27:28.476Z,56.92
2022-09-05T00:31:07.269Z,56.92
2022-09-05T00:33:16.960Z,57.12
2022-09-05T00:35:53.847Z,57.23
2022-09-05T00:38:23.614Z,56.93
2022-09-05T00:41:05.173Z,56.86
2022-09-05T00:43:34.604Z,56.54
2022-09-05T00:46:04.203Z,56.88
2022-09-05T00:48:36.599Z,56.78
2022-09-05T00:51:14.157Z,56.87
2022-09-05T00:53:47.953Z,56.81
2022-09-05T00:56:34.816Z,56.70
2022-09-05T00:59:23.353Z,56.81
2022-09-05T01:01:54.770Z,56.85
2022-09-05T01:04:32.345Z,56.38
2022-09-05T01:07:16.856Z,56.39
2022-09-05T01:09:48.415Z,56.48
2022-09-05T01:12:26.943Z,56.20
2022-09-05T01:15:04.898Z,56.24
2022-09-05T01:17:39.647Z,56.47
2022-09-05T01:20:38.106Z,56.68
2022-09-05T01:23:47.714Z,56.13
2022-09-05T01:26:41.387Z,56.59
2022-09-05T01:29:19.363Z,56.22
2022-09-05T01:31:58.091Z,56.10
2022-09-05T01:34:31.776Z,56.32
2022-09-05T01:37:03.768Z,56.49
2022-09-05T01:40:12.073Z,56.28
2022-09-05T01:42:32.548Z,55.92
2022-09-05T01:45:03.664Z,56.28
2022-09-05T01:47:41.176Z,55.95
2022-09-05T01:50:18.255Z,55.92
2022-09-05T01:52:59.231Z,55.96
2022-09-05T01:56:04.214Z,56.04
2022-09-05T01:58:29.093Z,55.93
2022-09-05T02:01:25.581Z,55.73
2022-09-05T02:03:53.743Z,55.73
2022-09-05T02:06:40.185Z,55.74
2022-09-05T02:09:22.515Z,55.77
2022-09-05T02:11:53.174Z,55.88
2022-09-05T02:14:34.425Z,56.04
2022-09-05T02:17:28.575Z,55.54
2022-09-05T02:20:09.485Z,55.76
2022-09-05T02:22:43.360Z,55.80
2022-09-05T02:25:40.281Z,55.55
2022-09-05T02:28:07.043Z,55.38
2022-09-05T02:30:37.027Z,55.67
2022-09-05T02:33:26.505Z,55.28
2022-09-05T02:35:57.049Z,55.39
2022-09-05T02:40:41.404Z,55.41
2022-09-05T02:45:08.516Z,55.48
2022-09-05T02:45:14.648Z,54.84
2022-09-05T02:47:01.430Z,55.18
2022-09-05T02:52:08.930Z,55.23
2022-09-05T02:57:29.555Z,55.20
2022-09-05T02:57:32.960Z,55.20
2022-09-05T02:58:24.474Z,55.30
2022-09-05T03:00:55.693Z,55.15
2022-09-05T03:03:28.653Z,55.14
2022-09-05T03:06:01.124Z,55.11
2022-09-05T03:08:41.031Z,54.77
2022-09-05T03:11:42.888Z,54.80
2022-09-05T03:14:50.613Z,55.33
2022-09-05T03:17:53.520Z,55.05
2022-09-05T03:21:09.953Z,54.59
2022-09-05T03:24:06.757Z,54.86
2022-09-05T03:27:02.911Z,55.00
2022-09-05T03:29:58.606Z,54.82
2022-09-05T03:33:03.211Z,54.86
2022-09-05T03:36:19.022Z,54.78
2022-09-05T03:39:09.335Z,54.75
2022-09-05T03:41:45.555Z,54.81
2022-09-05T03:44:22.178Z,54.42
2022-09-05T03:47:04.796Z,54.64
2022-09-05T03:51:39.427Z,54.50
2022-09-05T03:57:14.288Z,54.54
2022-09-05T03:57:16.806Z,54.64
2022-09-05T03:59:00.060Z,54.52
2022-09-05T04:03:32.939Z,54.48
2022-09-05T04:08:23.746Z,54.23
2022-09-05T04:08:27.923Z,54.31
2022-09-05T04:10:10.652Z,54.45
2022-09-05T04:12:50.959Z,54.46
2022-09-05T04:15:29.590Z,53.94
2022-09-05T04:18:03.898Z,54.16
2022-09-05T04:20:40.449Z,54.38
2022-09-05T04:23:24.970Z,54.03
2022-09-05T04:26:12.007Z,54.49
2022-09-05T04:28:53.374Z,54.03
2022-09-05T04:31:27.812Z,53.99
2022-09-05T04:34:02.847Z,54.04
2022-09-05T04:36:33.125Z,54.19
2022-09-05T04:39:09.723Z,54.12
2022-09-05T04:41:41.100Z,53.67
2022-09-05T04:44:13.031Z,54.13
2022-09-05T04:46:48.811Z,53.84
2022-09-05T04:49:18.255Z,54.22
2022-09-05T04:52:04.351Z,54.16
2022-09-05T04:54:36.586Z,53.64
2022-09-05T04:57:14.228Z,53.75
2022-09-05T05:04:02.353Z,53.27
2022-09-05T05:06:08.227Z,54.03
2022-09-05T05:06:23.757Z,53.83
2022-09-05T05:08:17.724Z,53.71
2022-09-05T05:15:35.260Z,53.70
2022-09-05T05:18:11.816Z,53.91
2022-09-05T05:18:13.923Z,53.51
2022-09-05T05:19:40.795Z,53.67
2022-09-05T05:22:14.996Z,53.35
2022-09-05T05:24:44.684Z,53.69
2022-09-05T05:27:17.531Z,53.49
2022-09-05T05:29:48.712Z,53.59
2022-09-05T05:32:44.996Z,53.84
2022-09-05T05:35:14.618Z,53.35
2022-09-05T05:37:44.043Z,53.73
2022-09-05T05:40:14.403Z,53.74
2022-09-05T05:42:42.793Z,53.54
2022-09-05T05:45:18.167Z,53.26
2022-09-05T05:47:49.055Z,53.50
2022-09-05T05:50:26.906Z,54.02
2022-09-05T05:53:11.515Z,53.62
2022-09-05T05:56:12.751Z,53.47
2022-09-05T05:59:09.521Z,53.51
2022-09-05T06:02:05.505Z,53.33
2022-09-05T06:05:16.080Z,53.12
2022-09-05T06:10:35.402Z,53.23
2022-09-05T06:14:58.129Z,53.48
2022-09-05T06:15:08.827Z,52.94
2022-09-05T06:17:55.985Z,53.29
2022-09-05T06:22:10.393Z,53.55
2022-09-05T06:24:13.209Z,53.30
2022-09-05T06:27:16.926Z,53.80
2022-09-05T06:29:51.341Z,53.86
2022-09-05T06:32:31.187Z,53.82
2022-09-05T06:35:25.934Z,53.85
2022-09-05T06:38:02.041Z,53.64
2022-09-05T06:40:34.491Z,54.22
2022-09-05T06:43:18.875Z,53.58
2022-09-05T06:45:58.935Z,54.11
2022-09-05T06:48:45.858Z,54.07
2022-09-05T06:51:45.002Z,54.36
2022-09-05T06:54:59.503Z,54.08
2022-09-05T06:57:53.527Z,54.63
2022-09-05T07:00:23.756Z,54.55
2022-09-05T07:03:13.596Z,55.46
2022-09-05T07:05:45.320Z,55.42
2022-09-05T07:08:36.419Z,55.36
2022-09-05T07:11:15.860Z,55.31
2022-09-05T07:13:54.691Z,55.96
2022-09-05T07:16:37.140Z,55.81
2022-09-05T07:19:14.324Z,56.02
2022-09-05T07:21:44.612Z,56.17
2022-09-05T07:24:22.108Z,56.40
2022-09-05T07:27:09.012Z,56.31
2022-09-05T07:29:53.491Z,56.63
2022-09-05T07:32:30.515Z,56.71
2022-09-05T07:34:58.840Z,56.90
2022-09-05T07:37:27.948Z,57.31
2022-09-05T07:39:57.470Z,57.24
2022-09-05T07:42:32.545Z,57.61
2022-09-05T07:45:06.464Z,57.76
2022-09-05T07:47:35.228Z,57.42
2022-09-05T07:51:17.307Z,57.55
2022-09-05T07:56:50.434Z,57.74
2022-09-05T07:56:52.991Z,58.10
2022-09-05T07:58:41.428Z,57.86
2022-09-05T08:01:12.718Z,57.77
2022-09-05T08:03:41.003Z,58.23
2022-09-05T08:06:10.762Z,58.25
2022-09-05T08:09:05.647Z,58.94
2022-09-05T08:11:37.181Z,58.72
2022-09-05T08:14:41.771Z,58.85
2022-09-05T08:16:55.740Z,58.89
2022-09-05T08:19:40.644Z,59.28
2022-09-05T08:22:09.220Z,59.20
2022-09-05T08:24:39.664Z,59.28
2022-09-05T08:27:16.192Z,59.17
2022-09-05T08:29:46.149Z,59.52
2022-09-05T08:32:16.841Z,59.30
2022-09-05T08:34:46.329Z,59.45
2022-09-05T08:37:17.839Z,59.20
2022-09-05T08:39:51.163Z,59.59
2022-09-05T08:42:40.450Z,59.40
2022-09-05T08:46:43.162Z,59.49
2022-09-05T08:48:15.219Z,59.70
2022-09-05T08:51:09.047Z,59.75
2022-09-05T08:53:48.861Z,59.87
2022-09-05T08:56:20.947Z,60.00
2022-09-05T08:59:27.896Z,60.09
2022-09-05T09:02:46.185Z,59.97
2022-09-05T09:05:02.498Z,60.17
2022-09-05T09:07:50.865Z,60.37
2022-09-05T09:10:32.773Z,59.81
2022-09-05T09:13:11.764Z,59.83
2022-09-05T09:15:40.413Z,60.54
2022-09-05T09:18:14.252Z,60.26
2022-09-05T09:20:49.345Z,60.24
2022-09-05T09:23:29.047Z,60.48
2022-09-05T09:26:06.548Z,60.37
2022-09-05T09:28:50.235Z,60.56
2022-09-05T09:31:24.684Z,60.59
2022-09-05T09:33:57.818Z,60.50
2022-09-05T09:37:03.752Z,60.34
2022-09-05T09:39:38.268Z,60.51
2022-09-05T09:42:34.130Z,60.97
2022-09-05T09:45:29.694Z,60.50
2022-09-05T09:48:19.286Z,60.68
2022-09-05T09:51:06.293Z,60.70
2022-09-05T09:53:44.508Z,60.83
2022-09-05T09:56:39.064Z,60.73
2022-09-05T09:59:29.543Z,60.82
2022-09-05T10:03:49.971Z,61.03
2022-09-05T10:10:39.331Z,60.71
2022-09-05T10:10:51.763Z,61.04
2022-09-05T10:15:23.730Z,60.94
2022-09-05T10:18:39.775Z,60.76
2022-09-05T10:21:35.513Z,60.97
2022-09-05T10:24:25.858Z,60.47
2022-09-05T10:27:13.159Z,60.85
2022-09-05T10:29:46.910Z,60.83
2022-09-05T10:35:10.779Z,60.76
2022-09-05T10:35:22.460Z,60.96
2022-09-05T10:37:55.365Z,60.91
2022-09-05T10:40:26.956Z,60.90
2022-09-05T10:43:00.916Z,61.01
2022-09-05T10:45:38.763Z,60.64
2022-09-05T10:48:13.737Z,60.88
2022-09-05T10:50:44.516Z,61.08
2022-09-05T10:53:39.250Z,60.69
2022-09-05T10:56:14.595Z,61.18
2022-09-05T10:59:54.092Z,61.05
2022-09-05T11:02:26.863Z,61.45
2022-09-05T11:04:49.772Z,61.35
2022-09-05T11:07:29.345Z,60.91
2022-09-05T11:10:12.195Z,61.30
2022-09-05T11:13:10.916Z,61.37
2022-09-05T11:16:03.853Z,61.56
2022-09-05T11:18:55.693Z,61.89
2022-09-05T11:21:29.063Z,61.88
2022-09-05T11:23:58.038Z,61.74
2022-09-05T11:26:32.456Z,61.90
2022-09-05T11:29:04.363Z,62.04
2022-09-05T11:31:44.790Z,61.63
2022-09-05T11:40:06.721Z,61.91
2022-09-05T11:40:10.063Z,61.61
2022-09-05T11:41:05.174Z,61.52
2022-09-05T11:44:24.878Z,61.99
2022-09-05T11:47:28.031Z,61.75
2022-09-05T11:50:09.121Z,61.68
2022-09-05T11:53:06.694Z,61.55
2022-09-05T11:55:53.308Z,61.49
2022-09-05T11:58:45.142Z,61.71
2022-09-05T12:01:41.568Z,61.86
2022-09-05T12:04:42.075Z,61.86
2022-09-05T12:07:31.501Z,62.04
2022-09-05T12:10:47.779Z,61.84
2022-09-05T12:13:37.270Z,62.37
2022-09-05T12:16:10.193Z,62.12
2022-09-05T12:18:43.884Z,62.16
2022-09-05T12:21:24.579Z,62.23
2022-09-05T12:24:36.830Z,62.08
2022-09-05T12:27:40.716Z,62.29
2022-09-05T12:29:48.702Z,62.39
2022-09-05T12:33:52.408Z,62.40
2022-09-05T12:36:06.058Z,62.36
2022-09-05T12:40:23.694Z,62.45
2022-09-05T12:41:44.277Z,62.38
2022-09-05T12:44:40.185Z,62.48
2022-09-05T12:46:38.799Z,62.63
2022-09-05T12:49:10.591Z,62.39
2022-09-05T12:51:46.097Z,62.29
2022-09-05T12:54:33.796Z,62.45
2022-09-05T13:00:24.212Z,62.43
2022-09-05T13:03:07.158Z,62.57
2022-09-05T13:03:09.053Z,62.16
2022-09-05T13:05:47.472Z,62.10
2022-09-05T13:08:21.693Z,62.43
2022-09-05T13:14:49.207Z,62.10
2022-09-05T13:14:54.648Z,62.41
2022-09-05T13:16:35.041Z,62.55
2022-09-05T13:19:07.796Z,62.48
2022-09-05T13:21:37.833Z,62.35
2022-09-05T13:24:10.308Z,62.40
2022-09-05T13:26:41.046Z,62.65
2022-09-05T13:29:15.347Z,62.43
2022-09-05T13:38:06.458Z,62.39
2022-09-05T13:38:17.741Z,62.47
2022-09-05T13:38:42.011Z,62.41
2022-09-05T13:40:38.534Z,62.58
2022-09-05T13:43:10.151Z,62.54
2022-09-05T13:45:57.717Z,62.34
2022-09-05T13:51:37.353Z,62.27
2022-09-05T13:54:41.325Z,62.65
2022-09-05T13:57:31.839Z,62.55
2022-09-05T14:00:28.980Z,62.57
2022-09-05T14:03:37.644Z,62.53
2022-09-05T14:06:45.860Z,62.59
2022-09-05T14:09:41.618Z,62.62
2022-09-05T14:12:13.071Z,62.60
2022-09-05T14:17:54.229Z,62.54
2022-09-05T14:20:42.909Z,62.62
2022-09-05T14:23:15.239Z,62.61
2022-09-05T14:25:44.576Z,62.62
2022-09-05T14:28:14.732Z,62.62
2022-09-05T14:34:36.925Z,62.39
2022-09-05T14:37:42.763Z,62.58
2022-09-05T14:37:50.570Z,62.64
2022-09-05T14:39:45.810Z,62.66
2022-09-05T14:42:29.135Z,62.62
2022-09-05T14:45:22.868Z,62.59
2022-09-05T14:48:29.103Z,62.69
2022-09-05T14:51:14.626Z,62.47
2022-09-05T14:53:59.985Z,62.73
2022-09-05T15:02:41.567Z,62.68
2022-09-05T15:02:51.668Z,62.37
2022-09-05T15:02:57.272Z,62.56
2022-09-05T15:05:21.183Z,62.36
2022-09-05T15:07:50.026Z,62.56
2022-09-05T15:12:17.767Z,62.53
2022-09-05T15:13:25.861Z,62.49
2022-09-05T15:16:02.518Z,62.77
2022-09-05T15:18:32.483Z,62.58
2022-09-05T15:21:33.302Z,62.34
2022-09-05T15:24:13.724Z,62.83
2022-09-05T15:26:52.564Z,62.40
2022-09-05T15:29:25.221Z,62.52
2022-09-05T15:32:09.190Z,62.65
2022-09-05T15:34:38.406Z,62.67
2022-09-05T15:37:23.351Z,62.15
2022-09-05T15:40:02.080Z,62.53
2022-09-05T15:42:32.307Z,62.42
2022-09-05T15:45:11.066Z,62.57
2022-09-05T15:47:40.584Z,62.53
2022-09-05T15:50:21.923Z,62.81
2022-09-05T15:52:55.441Z,62.47
2022-09-05T15:55:25.154Z,62.60
2022-09-05T15:57:55.267Z,62.84
2022-09-05T16:00:42.026Z,62.70
2022-09-05T16:04:42.210Z,62.18
2022-09-05T16:10:29.344Z,62.48
2022-09-05T16:10:48.666Z,62.72
2022-09-05T16:12:14.494Z,62.65
2022-09-05T16:14:45.236Z,62.84
2022-09-05T16:23:13.153Z,62.47
2022-09-05T16:23:32.498Z,62.90
2022-09-05T16:23:39.420Z,62.71
2022-09-05T16:26:07.840Z,62.52
2022-09-05T16:28:39.471Z,63.02
2022-09-05T16:31:13.785Z,62.57
2022-09-05T16:33:43.403Z,62.76
2022-09-05T16:36:16.246Z,62.65
2022-09-05T16:38:48.879Z,62.67
2022-09-05T16:41:24.067Z,62.93
2022-09-05T16:43:54.721Z,62.96
2022-09-05T16:46:23.827Z,62.76
2022-09-05T16:48:54.889Z,62.57
2022-09-05T16:51:35.561Z,62.88
2022-09-05T16:54:07.680Z,63.13
2022-09-05T16:56:41.162Z,62.54
2022-09-05T16:59:10.903Z,62.64
2022-09-05T17:01:54.934Z,62.87
2022-09-05T17:05:04.266Z,63.18
2022-09-05T17:07:56.480Z,63.11
2022-09-05T17:10:26.812Z,63.06
2022-09-05T17:12:55.009Z,62.88
2022-09-05T17:15:26.165Z,62.86
2022-09-05T17:18:19.488Z,62.99
2022-09-05T17:20:49.401Z,62.88
2022-09-05T17:29:15.469Z,62.90
2022-09-05T17:29:37.959Z,63.20
2022-09-05T17:29:39.206Z,63.11
2022-09-05T17:32:00.562Z,62.95
2022-09-05T17:34:49.793Z,62.91
2022-09-05T17:37:47.473Z,62.99
2022-09-05T17:40:42.797Z,62.80
2022-09-05T17:43:16.555Z,63.00
2022-09-05T17:46:13.232Z,63.10
2022-09-05T17:49:19.631Z,63.17
2022-09-05T17:52:18.353Z,63.19
2022-09-05T17:54:49.570Z,63.28
2022-09-05T17:57:39.342Z,63.07
2022-09-05T18:00:44.791Z,63.00
2022-09-05T18:03:13.085Z,62.96
2022-09-05T18:06:03.852Z,63.19
2022-09-05T18:11:44.909Z,62.91
2022-09-05T18:14:46.882Z,63.14
2022-09-05T18:18:02.796Z,62.96
2022-09-05T18:20:35.635Z,63.06
2022-09-05T18:23:37.162Z,63.00
2022-09-05T18:26:17.852Z,63.26
2022-09-05T18:28:56.345Z,63.44
2022-09-05T18:31:59.167Z,63.12
2022-09-05T18:34:46.690Z,63.13
2022-09-05T18:37:59.505Z,63.07
2022-09-05T18:40:53.991Z,62.96
2022-09-05T18:43:28.035Z,63.14
2022-09-05T18:46:01.120Z,63.09
2022-09-05T18:48:45.690Z,62.83
2022-09-05T18:51:35.663Z,62.80
2022-09-05T18:54:09.643Z,62.80
2022-09-05T18:57:27.010Z,63.33
2022-09-05T18:59:41.608Z,62.87
2022-09-05T19:02:41.123Z,62.92
2022-09-05T19:05:15.768Z,62.64
2022-09-05T19:07:48.295Z,63.02
2022-09-05T19:10:35.770Z,63.10
2022-09-05T19:13:10.552Z,62.85
2022-09-05T19:15:48.158Z,62.81
2022-09-05T19:18:37.103Z,62.64
2022-09-05T19:21:12.109Z,62.70
2022-09-05T19:23:44.555Z,62.57
2022-09-05T19:26:12.864Z,62.85
2022-09-05T19:36:46.106Z,62.60
2022-09-05T19:36:52.443Z,62.50
2022-09-05T19:37:06.989Z,62.47
2022-09-05T19:37:24.014Z,62.51
2022-09-05T19:42:44.908Z,62.46
2022-09-05T19:47:31.703Z,62.58
2022-09-05T19:47:49.137Z,62.25
2022-09-05T19:48:25.463Z,62.44
2022-09-05T19:50:56.556Z,62.39
2022-09-05T19:53:25.805Z,62.58
2022-09-05T19:55:54.560Z,62.35
2022-09-05T19:58:23.403Z,62.22
2022-09-05T20:01:02.351Z,62.01
2022-09-05T20:03:38.845Z,62.37
2022-09-05T20:06:28.988Z,62.31
2022-09-05T20:09:09.106Z,62.10
2022-09-05T20:11:45.911Z,62.13
2022-09-05T20:14:23.128Z,62.31
2022-09-05T20:16:52.273Z,62.12
2022-09-05T20:19:25.520Z,62.07
2022-09-05T20:22:11.477Z,62.09
2022-09-05T20:24:49.349Z,62.21
2022-09-05T20:27:17.594Z,61.95
2022-09-05T20:29:54.744Z,62.21
2022-09-05T20:32:27.823Z,62.25
2022-09-05T20:37:00.880Z,62.06
2022-09-05T20:43:17.348Z,61.86
2022-09-05T20:43:20.807Z,61.85
2022-09-05T20:43:58.039Z,61.98
2022-09-05T20:48:11.237Z,61.97
2022-09-05T20:54:12.674Z,61.98
2022-09-05T20:54:23.206Z,62.00
2022-09-05T20:55:39.054Z,61.92
2022-09-05T20:57:50.844Z,62.09
2022-09-05T21:00:21.447Z,61.63
2022-09-05T21:02:50.783Z,62.04
2022-09-05T21:05:25.496Z,62.05
2022-09-05T21:08:06.996Z,61.69
2022-09-05T21:10:55.020Z,61.97
2022-09-05T21:13:24.605Z,62.18
2022-09-05T21:15:54.237Z,61.76
2022-09-05T21:18:26.126Z,61.78
2022-09-05T21:21:03.353Z,62.13
2022-09-05T21:23:43.000Z,62.07
2022-09-05T21:26:24.271Z,61.95
2022-09-05T21:29:04.208Z,61.57
2022-09-05T21:31:32.655Z,61.67
2022-09-05T21:34:03.126Z,61.60
2022-09-05T21:36:33.697Z,61.75
2022-09-05T21:39:02.396Z,61.73
2022-09-05T21:41:32.264Z,61.73
2022-09-05T21:47:34.799Z,61.76
2022-09-05T21:47:48.685Z,61.73
2022-09-05T21:49:41.303Z,61.57
2022-09-05T21:52:09.447Z,61.67
2022-09-05T21:59:08.216Z,61.67
2022-09-05T21:59:28.690Z,61.37
2022-09-05T22:00:21.407Z,61.82
2022-09-05T22:02:49.820Z,61.69
2022-09-05T22:05:20.247Z,61.49
2022-09-05T22:07:48.880Z,61.57
2022-09-05T22:10:17.024Z,61.55
2022-09-05T22:12:48.820Z,61.76
2022-09-05T22:15:27.434Z,61.79
2022-09-05T22:18:16.766Z,61.69
2022-09-05T22:20:46.156Z,61.41
2022-09-05T22:23:21.633Z,61.57
2022-09-05T22:25:49.851Z,61.58
2022-09-05T22:28:20.919Z,61.81
2022-09-05T22:30:55.599Z,61.63
2022-09-05T22:33:25.107Z,61.79
2022-09-05T22:35:53.303Z,61.73
2022-09-05T22:38:21.563Z,61.47
2022-09-05T22:40:49.810Z,61.45
2022-09-05T22:43:19.377Z,61.75
2022-09-05T22:45:48.563Z,61.50
2022-09-05T22:48:16.669Z,61.45
2022-09-05T22:50:44.785Z,61.61
2022-09-05T22:53:12.879Z,61.29
2022-09-05T22:55:41.744Z,61.57
2022-09-05T22:58:11.953Z,61.42
2022-09-05T23:00:41.819Z,61.67
2022-09-05T23:03:10.126Z,61.73
2022-09-05T23:05:38.212Z,61.74
2022-09-05T23:08:06.920Z,61.59
2022-09-05T23:10:35.081Z,61.59
2022-09-05T23:13:07.499Z,61.57
2022-09-05T23:15:35.966Z,61.55
2022-09-05T23:18:05.866Z,61.56
2022-09-05T23:20:34.187Z,61.60
2022-09-05T23:23:03.940Z,61.05
2022-09-05T23:25:32.108Z,61.35
2022-09-05T23:28:00.224Z,61.47
2022-09-05T23:30:28.400Z,61.68
2022-09-05T23:32:56.464Z,61.56
2022-09-05T23:35:26.104Z,61.61
2022-09-05T23:37:54.204Z,61.29
2022-09-05T23:40:23.191Z,61.49
2022-09-05T23:42:53.065Z,61.65
2022-09-05T23:45:21.179Z,61.51
2022-09-05T23:47:49.281Z,61.60
2022-09-05T23:50:17.748Z,61.57
2022-09-05T23:52:47.317Z,61.61
2022-09-05T23:55:16.515Z,61.69
2022-09-05T23:57:44.644Z,61.51
